createdAt,value
2023-04-15T00:01:11.258Z,0.70
2023-04-15T00:03:38.115Z,0.80
2023-04-15T00:06:05.461Z,0.80
2023-04-15T00:08:32.811Z,0.70
2023-04-15T00:11:05.176Z,0.90
2023-04-15T00:13:34.844Z,0.80
2023-04-15T00:16:01.685Z,1.10
2023-04-15T00:18:29.295Z,1.20
2023-04-15T00:20:55.883Z,1.00
2023-04-15T00:23:22.981Z,1.10
2023-04-15T00:25:50.546Z,0.90
2023-04-15T00:28:17.489Z,0.90
2023-04-15T00:30:45.190Z,0.90
2023-04-15T00:33:12.915Z,0.80
2023-04-15T00:35:40.166Z,0.80
2023-04-15T00:38:07.743Z,0.60
2023-04-15T00:40:34.979Z,1.00
2023-04-15T00:43:02.133Z,0.80
2023-04-15T00:45:29.610Z,0.90
2023-04-15T00:47:56.366Z,0.80
2023-04-15T00:50:23.278Z,0.80
2023-04-15T00:52:50.223Z,0.70
2023-04-15T00:55:16.860Z,0.70
2023-04-15T00:57:43.603Z,0.80
2023-04-15T01:00:11.465Z,0.80
2023-04-15T01:02:38.723Z,0.80
2023-04-15T01:05:05.770Z,0.80
2023-04-15T01:07:32.505Z,0.80
2023-04-15T01:09:59.090Z,1.00
2023-04-15T01:12:26.703Z,1.00
2023-04-15T01:14:54.485Z,1.00
2023-04-15T01:17:21.219Z,0.60
2023-04-15T01:19:48.101Z,0.80
2023-04-15T01:22:15.537Z,0.70
2023-04-15T01:24:43.431Z,0.70
2023-04-15T01:27:11.248Z,0.80
2023-04-15T01:29:37.974Z,0.70
2023-04-15T01:32:06.259Z,1.10
2023-04-15T01:34:35.527Z,0.80
2023-04-15T01:37:02.605Z,0.60
2023-04-15T01:39:29.551Z,0.80
2023-04-15T01:41:57.013Z,0.90
2023-04-15T01:44:24.574Z,0.80
2023-04-15T01:46:51.292Z,0.70
2023-04-15T01:49:18.467Z,1.20
2023-04-15T01:51:45.195Z,0.50
2023-04-15T01:54:13.174Z,0.80
2023-04-15T01:56:39.952Z,0.60
2023-04-15T01:59:07.081Z,0.70
2023-04-15T02:01:33.863Z,0.90
2023-04-15T02:04:00.713Z,0.80
2023-04-15T02:06:27.805Z,0.70
2023-04-15T02:08:55.366Z,0.70
2023-04-15T02:11:22.722Z,0.70
2023-04-15T02:13:49.575Z,1.00
2023-04-15T02:16:17.610Z,0.60
2023-04-15T02:21:12.337Z,0.70
2023-04-15T02:23:39.075Z,0.70
2023-04-15T02:26:06.167Z,0.70
2023-04-15T02:28:32.996Z,0.70
2023-04-15T02:31:01.153Z,0.70
2023-04-15T02:33:31.892Z,0.80
2023-04-15T02:35:59.958Z,0.70
2023-04-15T02:38:27.921Z,0.60
2023-04-15T02:40:55.074Z,0.80
2023-04-15T02:43:21.818Z,0.80
2023-04-15T02:45:49.703Z,0.90
2023-04-15T02:48:18.983Z,0.80
2023-04-15T02:50:46.643Z,0.80
2023-04-15T02:53:14.206Z,0.70
2023-04-15T02:55:42.376Z,0.80
2023-04-15T02:58:09.217Z,0.80
2023-04-15T03:00:35.857Z,1.00
2023-04-15T03:03:04.806Z,0.70
2023-04-15T03:05:32.112Z,0.70
2023-04-15T03:08:00.578Z,0.70
2023-04-15T03:10:27.432Z,0.70
2023-04-15T03:12:53.994Z,1.00
2023-04-15T03:15:21.836Z,0.80
2023-04-15T03:17:50.936Z,0.80
2023-04-15T03:20:17.695Z,0.80
2023-04-15T03:22:44.404Z,0.80
2023-04-15T03:25:11.552Z,0.70
2023-04-15T03:27:38.796Z,0.70
2023-04-15T03:30:07.191Z,0.80
2023-04-15T03:32:35.905Z,0.80
2023-04-15T03:35:02.933Z,0.80
2023-04-15T03:37:29.666Z,0.60
2023-04-15T03:39:56.593Z,1.00
2023-04-15T03:42:23.350Z,0.60
2023-04-15T03:44:50.084Z,0.90
2023-04-15T03:47:16.750Z,0.60
2023-04-15T03:49:43.535Z,0.70
2023-04-15T03:52:10.310Z,1.00
2023-04-15T03:54:36.954Z,0.70
2023-04-15T03:57:03.801Z,0.80
2023-04-15T03:59:30.733Z,0.80
2023-04-15T04:01:57.598Z,0.70
2023-04-15T04:04:24.708Z,0.70
2023-04-15T04:06:51.467Z,0.90
2023-04-15T04:09:18.012Z,0.70
2023-04-15T04:11:45.257Z,0.80
2023-04-15T04:14:11.842Z,0.90
2023-04-15T04:16:38.624Z,0.60
2023-04-15T04:19:05.786Z,0.70
2023-04-15T04:21:33.657Z,0.70
2023-04-15T04:24:00.289Z,1.00
2023-04-15T04:26:27.038Z,0.90
2023-04-15T04:28:53.715Z,0.90
2023-04-15T04:31:20.737Z,0.70
2023-04-15T04:33:47.287Z,0.80
2023-04-15T04:36:14.084Z,0.80
2023-04-15T04:38:40.938Z,0.60
2023-04-15T04:41:07.875Z,0.80
2023-04-15T04:43:34.521Z,0.80
2023-04-15T04:46:01.280Z,1.00
2023-04-15T04:48:28.006Z,0.90
2023-04-15T04:50:55.249Z,0.80
2023-04-15T04:53:22.096Z,0.90
2023-04-15T04:55:49.241Z,0.80
2023-04-15T04:58:15.892Z,0.80
2023-04-15T05:00:42.833Z,1.00
2023-04-15T05:03:09.773Z,0.90
2023-04-15T05:05:38.979Z,0.70
2023-04-15T05:08:06.536Z,0.80
2023-04-15T05:10:33.276Z,1.00
2023-04-15T05:13:00.012Z,1.10
2023-04-15T05:15:26.652Z,0.90
2023-04-15T05:17:53.306Z,0.90
2023-04-15T05:20:20.244Z,0.90
2023-04-15T05:22:46.986Z,1.00
2023-04-15T05:25:13.678Z,0.90
2023-04-15T05:27:40.766Z,0.80
2023-04-15T05:30:08.449Z,0.90
2023-04-15T05:32:35.206Z,0.80
2023-04-15T05:35:02.644Z,0.70
2023-04-15T05:37:29.365Z,0.90
2023-04-15T05:39:56.416Z,1.00
2023-04-15T05:42:23.054Z,0.80
2023-04-15T05:44:49.755Z,0.90
2023-04-15T05:47:16.530Z,0.80
2023-04-15T05:49:43.090Z,0.90
2023-04-15T05:52:09.910Z,0.80
2023-04-15T05:54:36.575Z,1.00
2023-04-15T05:57:03.600Z,1.00
2023-04-15T05:59:30.536Z,1.10
2023-04-15T06:01:58.841Z,1.10
2023-04-15T06:04:25.892Z,1.30
2023-04-15T06:06:52.524Z,1.20
2023-04-15T06:09:19.056Z,0.90
2023-04-15T06:11:45.795Z,1.00
2023-04-15T06:14:12.634Z,1.20
2023-04-15T06:16:39.430Z,1.10
2023-04-15T06:19:06.223Z,0.90
2023-04-15T06:21:32.952Z,0.90
2023-04-15T06:24:00.947Z,1.00
2023-04-15T06:26:27.755Z,1.20
2023-04-15T06:28:55.324Z,0.90
2023-04-15T06:31:22.522Z,0.90
2023-04-15T06:33:49.521Z,1.20
2023-04-15T06:36:16.263Z,1.00
2023-04-15T06:38:42.992Z,1.00
2023-04-15T06:41:10.247Z,1.20
2023-04-15T06:43:36.984Z,1.30
2023-04-15T06:46:03.832Z,1.00
2023-04-15T06:48:30.791Z,0.90
2023-04-15T06:50:58.245Z,1.00
2023-04-15T06:53:27.434Z,1.10
2023-04-15T06:55:54.178Z,1.00
2023-04-15T06:58:21.241Z,1.20
2023-04-15T07:00:48.205Z,1.20
2023-04-15T07:03:15.099Z,1.20
2023-04-15T07:05:42.057Z,1.00
2023-04-15T07:08:08.903Z,1.00
2023-04-15T07:10:35.724Z,1.10
2023-04-15T07:13:02.186Z,1.10
2023-04-15T07:15:28.922Z,0.80
2023-04-15T07:17:55.679Z,1.20
2023-04-15T07:20:22.820Z,1.00
2023-04-15T07:22:49.425Z,1.00
2023-04-15T07:25:17.111Z,1.20
2023-04-15T07:27:44.155Z,1.00
2023-04-15T07:30:12.026Z,1.20
2023-04-15T07:32:38.887Z,0.90
2023-04-15T07:35:06.111Z,1.00
2023-04-15T07:37:33.065Z,1.10
2023-04-15T07:39:59.704Z,0.90
2023-04-15T07:42:26.454Z,1.20
2023-04-15T07:44:53.018Z,0.90
2023-04-15T07:47:19.724Z,1.00
2023-04-15T07:49:46.774Z,1.30
2023-04-15T07:52:13.480Z,1.10
2023-04-15T07:54:40.188Z,1.00
2023-04-15T07:59:38.962Z,0.90
2023-04-15T08:02:05.641Z,1.10
2023-04-15T08:04:33.482Z,1.30
2023-04-15T08:07:00.612Z,1.20
2023-04-15T08:09:27.251Z,1.00
2023-04-15T08:11:53.891Z,0.90
2023-04-15T08:14:20.526Z,0.90
2023-04-15T08:16:47.258Z,1.10
2023-04-15T08:19:13.898Z,0.70
2023-04-15T08:21:40.546Z,0.80
2023-04-15T08:24:07.581Z,0.90
2023-04-15T08:26:34.429Z,0.90
2023-04-15T08:29:01.345Z,1.00
2023-04-15T08:31:29.402Z,0.80
2023-04-15T08:33:56.995Z,0.80
2023-04-15T08:36:23.653Z,1.00
2023-04-15T08:38:50.716Z,0.80
2023-04-15T08:41:22.985Z,0.80
2023-04-15T08:44:02.828Z,1.10
2023-04-15T08:46:30.995Z,0.80
2023-04-15T08:48:58.041Z,0.80
2023-04-15T08:51:25.093Z,1.20
2023-04-15T08:53:52.134Z,1.10
2023-04-15T08:56:19.719Z,0.90
2023-04-15T08:58:46.650Z,0.90
2023-04-15T09:01:13.653Z,0.70
2023-04-15T09:03:41.359Z,0.80
2023-04-15T09:06:08.171Z,0.80
2023-04-15T09:08:35.340Z,0.70
2023-04-15T09:11:05.065Z,0.80
2023-04-15T09:13:31.703Z,0.90
2023-04-15T09:15:58.627Z,0.70
2023-04-15T09:18:30.200Z,1.00
2023-04-15T09:21:06.362Z,0.80
2023-04-15T09:23:34.213Z,0.90
2023-04-15T09:26:02.086Z,0.60
2023-04-15T09:28:28.929Z,0.60
2023-04-15T09:30:59.265Z,0.90
2023-04-15T09:33:27.526Z,0.90
2023-04-15T09:35:58.573Z,0.70
2023-04-15T09:38:25.409Z,1.00
2023-04-15T09:40:52.148Z,0.80
2023-04-15T09:43:19.199Z,0.70
2023-04-15T09:45:51.244Z,0.60
2023-04-15T09:48:20.289Z,1.00
2023-04-15T09:50:52.931Z,0.90
2023-04-15T09:53:21.209Z,0.70
2023-04-15T09:55:58.261Z,0.90
2023-04-15T09:58:26.836Z,0.90
2023-04-15T10:00:54.784Z,0.60
2023-04-15T10:03:28.849Z,0.60
2023-04-15T10:05:57.576Z,0.60
2023-04-15T10:08:28.276Z,0.70
2023-04-15T10:10:55.630Z,0.80
2023-04-15T10:13:27.864Z,0.60
2023-04-15T10:15:59.816Z,0.70
2023-04-15T10:18:27.561Z,0.60
2023-04-15T10:20:55.086Z,1.00
2023-04-15T10:23:22.360Z,0.80
2023-04-15T10:25:50.724Z,0.80
2023-04-15T10:28:17.341Z,0.80
2023-04-15T10:30:44.402Z,0.80
2023-04-15T10:33:11.255Z,0.70
2023-04-15T10:35:38.714Z,0.50
2023-04-15T10:38:37.510Z,0.50
2023-04-15T10:44:04.928Z,0.50
2023-04-15T10:46:44.734Z,0.60
2023-04-15T10:49:15.869Z,0.70
2023-04-15T10:51:47.539Z,0.80
2023-04-15T10:54:14.781Z,0.70
2023-04-15T10:56:44.828Z,0.70
2023-04-15T10:59:11.864Z,0.90
2023-04-15T11:02:00.122Z,0.80
2023-04-15T11:04:52.714Z,0.70
2023-04-15T11:07:36.568Z,0.70
2023-04-15T11:10:09.076Z,0.70
2023-04-15T11:12:36.103Z,0.60
2023-04-15T11:15:30.884Z,0.80
2023-04-15T11:17:58.101Z,0.60
2023-04-15T11:20:25.401Z,0.70
2023-04-15T11:23:14.387Z,0.60
2023-04-15T11:25:42.538Z,0.50
2023-04-15T11:28:10.096Z,0.90
2023-04-15T11:30:37.132Z,0.70
2023-04-15T11:33:05.472Z,0.80
2023-04-15T11:37:58.629Z,0.80
2023-04-15T11:40:29.117Z,0.80
2023-04-15T11:43:08.637Z,0.50
2023-04-15T11:45:36.347Z,0.70
2023-04-15T11:48:09.938Z,0.60
2023-04-15T11:50:39.952Z,0.70
2023-04-15T11:53:08.662Z,0.50
2023-04-15T11:55:43.420Z,0.70
2023-04-15T11:58:23.133Z,0.50
2023-04-15T12:00:53.643Z,0.50
2023-04-15T12:03:24.191Z,0.60
2023-04-15T12:06:12.535Z,0.60
2023-04-15T12:08:49.317Z,0.40
2023-04-15T12:11:45.419Z,0.40
2023-04-15T12:14:15.127Z,0.50
2023-04-15T12:16:49.248Z,0.40
2023-04-15T12:19:45.771Z,0.50
2023-04-15T12:22:14.714Z,0.60
2023-04-15T12:32:22.355Z,0.60
2023-04-15T12:34:53.773Z,0.70
2023-04-15T12:37:20.616Z,0.50
2023-04-15T12:39:48.488Z,0.40
2023-04-15T12:42:15.942Z,0.70
2023-04-15T12:44:43.196Z,0.70
2023-04-15T12:47:10.757Z,0.40
2023-04-15T12:49:37.872Z,0.40
2023-04-15T12:52:05.149Z,0.60
2023-04-15T12:54:31.943Z,0.70
2023-04-15T12:56:58.751Z,0.50
2023-04-15T12:59:25.478Z,0.40
2023-04-15T13:01:52.878Z,0.70
2023-04-15T13:04:20.269Z,0.80
2023-04-15T13:06:47.258Z,0.50
2023-04-15T13:09:14.291Z,0.40
2023-04-15T13:11:41.342Z,0.40
2023-04-15T13:14:08.902Z,0.50
2023-04-15T13:16:35.734Z,0.60
2023-04-15T13:19:02.963Z,0.30
2023-04-15T13:21:31.577Z,0.60
2023-04-15T13:23:58.212Z,0.40
2023-04-15T13:26:25.052Z,0.60
2023-04-15T13:28:51.694Z,0.50
2023-04-15T13:31:18.447Z,0.40
2023-04-15T13:33:45.889Z,0.40
2023-04-15T13:36:12.930Z,0.80
2023-04-15T13:38:39.779Z,0.40
2023-04-15T13:41:06.412Z,0.50
2023-04-15T13:43:33.776Z,0.40
2023-04-15T13:46:00.909Z,0.40
2023-04-15T13:48:28.384Z,0.70
2023-04-15T13:50:54.929Z,0.60
2023-04-15T13:53:21.477Z,0.60
2023-04-15T13:56:00.896Z,0.50
2023-04-15T13:58:27.744Z,0.60
2023-04-15T14:00:54.586Z,0.50
2023-04-15T14:03:21.685Z,0.40
2023-04-15T14:05:52.872Z,0.50
2023-04-15T14:08:19.819Z,0.50
2023-04-15T14:10:47.991Z,0.40
2023-04-15T14:13:14.722Z,0.50
2023-04-15T14:15:41.369Z,0.60
2023-04-15T14:18:08.105Z,0.50
2023-04-15T14:20:34.963Z,0.50
2023-04-15T14:23:02.305Z,0.30
2023-04-15T14:25:33.774Z,0.60
2023-04-15T14:28:01.831Z,0.40
2023-04-15T14:30:28.504Z,0.50
2023-04-15T14:32:55.484Z,0.50
2023-04-15T14:35:23.993Z,0.40
2023-04-15T14:37:50.890Z,0.40
2023-04-15T14:40:17.771Z,0.40
2023-04-15T14:42:44.734Z,0.60
2023-04-15T14:45:11.470Z,0.60
2023-04-15T14:47:38.140Z,0.40
2023-04-15T14:50:05.761Z,0.40
2023-04-15T14:52:38.485Z,0.40
2023-04-15T14:55:12.040Z,0.30
2023-04-15T14:57:42.125Z,0.30
2023-04-15T15:00:10.931Z,0.40
2023-04-15T15:02:40.288Z,0.60
2023-04-15T15:05:09.611Z,0.40
2023-04-15T15:07:37.646Z,0.20
2023-04-15T15:10:05.528Z,0.30
2023-04-15T15:12:32.745Z,0.30
2023-04-15T15:14:59.251Z,0.50
2023-04-15T15:17:25.857Z,0.30
2023-04-15T15:19:52.575Z,0.20
2023-04-15T15:22:20.917Z,0.40
2023-04-15T15:24:48.236Z,0.40
2023-04-15T15:27:14.936Z,0.50
2023-04-15T15:29:41.588Z,0.40
2023-04-15T15:32:08.205Z,0.40
2023-04-15T15:34:34.994Z,0.40
2023-04-15T15:37:01.805Z,0.50
2023-04-15T15:39:28.641Z,0.40
2023-04-15T15:41:55.395Z,0.30
2023-04-15T15:44:22.018Z,0.30
2023-04-15T15:46:49.966Z,0.30
2023-04-15T15:49:16.523Z,0.30
2023-04-15T15:51:43.481Z,0.60
2023-04-15T15:54:10.119Z,0.60
2023-04-15T15:56:38.701Z,0.40
2023-04-15T15:59:05.718Z,0.40
2023-04-15T16:01:32.517Z,0.20
2023-04-15T16:04:00.082Z,0.60
2023-04-15T16:06:27.082Z,0.30
2023-04-15T16:08:53.718Z,0.40
2023-04-15T16:16:23.598Z,0.50
2023-04-15T16:18:50.415Z,0.30
2023-04-15T16:21:17.120Z,0.40
2023-04-15T16:23:43.742Z,0.40
2023-04-15T16:26:10.423Z,0.40
2023-04-15T16:28:37.175Z,0.40
2023-04-15T16:31:03.912Z,0.30
2023-04-15T16:33:30.550Z,0.30
2023-04-15T16:35:57.398Z,0.30
2023-04-15T16:40:58.236Z,0.40
2023-04-15T16:43:25.424Z,0.30
2023-04-15T16:45:52.365Z,0.40
2023-04-15T16:48:19.445Z,0.30
2023-04-15T16:50:46.855Z,0.60
2023-04-15T16:53:16.489Z,0.30
2023-04-15T16:55:43.210Z,0.40
2023-04-15T17:00:41.405Z,0.30
2023-04-15T17:03:08.587Z,0.30
2023-04-15T17:05:35.588Z,0.40
2023-04-15T17:08:02.321Z,0.30
2023-04-15T17:10:29.985Z,0.50
2023-04-15T17:12:57.263Z,0.30
2023-04-15T17:15:24.437Z,0.30
2023-04-15T17:17:51.990Z,0.20
2023-04-15T17:20:18.890Z,0.30
2023-04-15T17:22:45.435Z,0.30
2023-04-15T17:25:13.192Z,0.20
2023-04-15T17:27:40.242Z,0.30
2023-04-15T17:30:07.707Z,0.40
2023-04-15T17:32:34.973Z,0.60
2023-04-15T17:35:05.243Z,0.30
2023-04-15T17:37:35.403Z,0.40
2023-04-15T17:40:02.050Z,0.30
2023-04-15T17:42:28.877Z,0.30
2023-04-15T17:44:55.533Z,0.40
2023-04-15T17:47:22.166Z,0.40
2023-04-15T17:49:48.705Z,0.50
2023-04-15T17:52:15.756Z,0.40
2023-04-15T17:54:42.486Z,0.40
2023-04-15T17:57:09.210Z,0.30
2023-04-15T17:59:35.850Z,0.30
2023-04-15T18:02:02.857Z,0.40
2023-04-15T18:04:29.657Z,0.50
2023-04-15T18:06:56.284Z,0.40
2023-04-15T18:09:22.946Z,0.30
2023-04-15T18:11:49.680Z,0.40
2023-04-15T18:14:30.699Z,0.40
2023-04-15T18:17:01.795Z,0.30
2023-04-15T18:19:29.644Z,0.30
2023-04-15T18:21:56.393Z,0.40
2023-04-15T18:24:23.127Z,0.40
2023-04-15T18:26:49.882Z,0.50
2023-04-15T18:29:18.145Z,0.50
2023-04-15T18:31:44.799Z,0.40
2023-04-15T18:34:12.149Z,0.50
2023-04-15T18:36:38.780Z,0.40
2023-04-15T18:39:05.989Z,0.50
2023-04-15T18:41:33.180Z,0.70
2023-04-15T18:43:59.715Z,0.50
2023-04-15T18:46:27.329Z,0.80
2023-04-15T18:48:55.461Z,0.70
2023-04-15T18:51:22.197Z,0.40
2023-04-15T18:53:48.948Z,0.40
2023-04-15T18:56:15.670Z,0.70
2023-04-15T18:59:20.792Z,0.60
2023-04-15T19:01:30.750Z,0.50
2023-04-15T19:03:58.926Z,0.70
2023-04-15T19:06:26.616Z,0.50
2023-04-15T19:08:53.655Z,0.80
2023-04-15T19:11:20.288Z,0.70
2023-04-15T19:13:47.225Z,0.50
2023-04-15T19:16:13.810Z,0.60
2023-04-15T19:18:40.916Z,0.60
2023-04-15T19:21:07.671Z,0.60
2023-04-15T19:23:34.245Z,0.60
2023-04-15T19:26:01.238Z,0.60
2023-04-15T19:28:29.625Z,0.80
2023-04-15T19:30:57.313Z,0.60
2023-04-15T19:33:26.841Z,0.60
2023-04-15T19:35:53.533Z,1.00
2023-04-15T19:38:20.169Z,0.60
2023-04-15T19:40:47.116Z,0.90
2023-04-15T19:43:13.754Z,0.80
2023-04-15T19:45:40.590Z,0.70
2023-04-15T19:48:07.331Z,0.60
2023-04-15T19:50:34.283Z,0.70
2023-04-15T19:53:01.020Z,0.60
2023-04-15T19:55:27.758Z,0.80
2023-04-15T19:57:54.401Z,0.70
2023-04-15T20:00:21.344Z,0.50
2023-04-15T20:02:48.482Z,0.90
2023-04-15T20:05:15.545Z,0.70
2023-04-15T20:07:42.742Z,0.70
2023-04-15T20:10:12.648Z,0.70
2023-04-15T20:12:49.754Z,0.60
2023-04-15T20:15:19.595Z,0.70
2023-04-15T20:17:46.274Z,0.70
2023-04-15T20:20:12.995Z,0.70
2023-04-15T20:22:40.442Z,0.90
2023-04-15T20:25:07.473Z,0.70
2023-04-15T20:27:34.233Z,0.70
2023-04-15T20:30:01.384Z,1.10
2023-04-15T20:32:28.474Z,0.60
2023-04-15T20:34:55.472Z,0.90
2023-04-15T20:37:22.108Z,0.80
2023-04-15T20:39:48.772Z,0.80
2023-04-15T20:42:15.578Z,0.80
2023-04-15T20:44:42.229Z,0.70
2023-04-15T20:47:08.933Z,0.80
2023-04-15T20:49:36.651Z,0.80
2023-04-15T20:52:06.856Z,0.80
2023-04-15T20:54:33.817Z,0.90
2023-04-15T20:57:01.174Z,0.50
2023-04-15T20:59:27.775Z,0.70
2023-04-15T21:01:56.256Z,0.70
2023-04-15T21:04:23.772Z,0.80
2023-04-15T21:06:51.604Z,0.90
2023-04-15T21:09:18.545Z,0.90
2023-04-15T21:12:00.398Z,0.80
2023-04-15T21:14:28.322Z,0.80
2023-04-15T21:16:57.077Z,0.90
2023-04-15T21:19:23.938Z,0.70
2023-04-15T21:21:50.685Z,0.80
2023-04-15T21:24:17.420Z,0.70
2023-04-15T21:26:43.951Z,0.70
2023-04-15T21:29:11.813Z,0.90
2023-04-15T21:31:39.390Z,0.80
2023-04-15T21:34:05.909Z,0.80
2023-04-15T21:36:33.309Z,0.60
2023-04-15T21:39:00.325Z,0.70
2023-04-15T21:41:27.288Z,1.20
2023-04-15T21:43:53.909Z,0.90
2023-04-15T21:46:23.503Z,0.60
2023-04-15T21:48:55.081Z,0.90
2023-04-15T21:51:22.221Z,0.60
2023-04-15T21:53:48.769Z,0.90
2023-04-15T21:56:15.603Z,0.70
2023-04-15T21:58:42.433Z,0.80
2023-04-15T22:01:09.241Z,0.70
2023-04-15T22:03:36.185Z,0.60
2023-04-15T22:06:03.416Z,0.70
2023-04-15T22:08:36.064Z,0.70
2023-04-15T22:11:30.514Z,0.80
2023-04-15T22:13:58.014Z,0.70
2023-04-15T22:16:25.446Z,0.90
2023-04-15T22:18:53.024Z,0.60
2023-04-15T22:21:19.662Z,0.90
2023-04-15T22:23:47.550Z,0.80
2023-04-15T22:26:14.772Z,0.80
2023-04-15T22:28:41.519Z,0.70
2023-04-15T22:31:08.386Z,0.60
2023-04-15T22:33:35.526Z,1.00
2023-04-15T22:36:02.157Z,0.90
2023-04-15T22:38:28.788Z,0.80
2023-04-15T22:40:55.626Z,0.70
2023-04-15T22:43:22.375Z,0.70
2023-04-15T22:45:50.267Z,0.70
2023-04-15T22:48:17.905Z,0.80
2023-04-15T22:50:44.840Z,0.70
2023-04-15T22:53:11.482Z,0.80
2023-04-15T22:55:38.237Z,1.00
2023-04-15T22:58:05.074Z,0.70
2023-04-15T23:00:31.706Z,0.80
2023-04-15T23:02:58.506Z,0.60
2023-04-15T23:05:25.572Z,0.70
2023-04-15T23:07:52.440Z,0.70
2023-04-15T23:10:19.145Z,0.70
2023-04-15T23:12:46.243Z,0.80
2023-04-15T23:15:12.868Z,0.80
2023-04-15T23:17:41.605Z,0.90
2023-04-15T23:20:08.919Z,0.70
2023-04-15T23:22:38.606Z,0.70
2023-04-15T23:25:06.088Z,0.70
2023-04-15T23:27:32.739Z,0.80
2023-04-15T23:29:59.446Z,0.50
2023-04-15T23:32:26.855Z,0.70
2023-04-15T23:34:53.871Z,0.70
2023-04-15T23:37:20.593Z,0.80
2023-04-15T23:39:47.331Z,0.90
2023-04-15T23:42:13.977Z,0.60
2023-04-15T23:44:40.721Z,0.90
2023-04-15T23:47:07.407Z,0.50
2023-04-15T23:49:36.042Z,0.70
2023-04-15T23:54:47.741Z,0.70
2023-04-15T23:57:14.395Z,0.90
2023-04-15T23:59:41.654Z,0.70
